Time;durP1;ratioP1;P1;durP2;ratioP2;P2;SDS_P1;SDS_P2;PMS_P1;PMS_P2;Temp;Humidity;BMP_temperature;BMP_pressure;BME280_temperature;BME280_humidity;BME280_pressure;Samples;Min_cycle;Max_cycle;Signal;HPM_P1;HPM_P2
2021/01/09 00:00:27;;;;;;;6.50;1.70;;;2.10;98.00;;;;;;5070276;28;20483;-67
2021/01/09 00:02:55;;;;;;;1.20;1.10;;;2.00;98.00;;;;;;5069112;28;20460;-68
2021/01/09 00:05:22;;;;;;;1.20;1.10;;;2.00;98.00;;;;;;5071732;28;20535;-68
2021/01/09 00:07:56;;;;;;;1.60;1.50;;;2.00;98.00;;;;;;5069532;28;20479;-68
2021/01/09 00:10:23;;;;;;;1.10;1.00;;;2.00;98.00;;;;;;5072017;28;20555;-68
2021/01/09 00:12:51;;;;;;;1.33;1.27;;;2.00;98.00;;;;;;5070036;28;20468;-67
2021/01/09 00:15:17;;;;;;;1.10;1.00;;;2.10;98.00;;;;;;5071807;28;20464;-67
2021/01/09 00:17:44;;;;;;;1.10;0.90;;;2.00;98.00;;;;;;5069784;28;21042;-67
2021/01/09 00:20:13;;;;;;;1.43;1.40;;;2.00;98.00;;;;;;5070354;28;20503;-68
2021/01/09 00:22:40;;;;;;;1.40;1.30;;;2.10;98.00;;;;;;5068164;28;20456;-67
2021/01/09 00:25:09;;;;;;;3.53;1.47;;;2.10;98.00;;;;;;5071562;28;20491;-67
2021/01/09 00:27:36;;;;;;;2.47;1.73;;;2.10;98.00;;;;;;5069223;28;20459;-67
2021/01/09 00:30:04;;;;;;;5.37;3.10;;;2.10;98.00;;;;;;5053978;28;20456;-67
2021/01/09 00:32:33;;;;;;;1.13;1.00;;;2.10;98.00;;;;;;5069561;28;20460;-67
2021/01/09 00:35:00;;;;;;;1.10;0.90;;;2.10;98.00;;;;;;5071432;28;20467;-68
2021/01/09 00:37:28;;;;;;;1.27;1.10;;;2.00;98.00;;;;;;5069257;28;20583;-68
2021/01/09 00:39:55;;;;;;;1.40;1.20;;;2.10;98.00;;;;;;5071563;28;20452;-68
2021/01/09 00:42:21;;;;;;;2.07;1.57;;;2.20;98.00;;;;;;5069252;28;20464;-67
2021/01/09 00:44:48;;;;;;;1.20;1.10;;;2.30;98.00;;;;;;5071540;28;20549;-67
2021/01/09 00:47:15;;;;;;;1.20;1.03;;;2.30;98.00;;;;;;5069769;28;20453;-67
2021/01/09 00:49:42;;;;;;;1.40;1.30;;;2.30;98.00;;;;;;5071686;28;20460;-67
2021/01/09 00:52:08;;;;;;;1.70;1.60;;;2.20;98.00;;;;;;5069063;28;20460;-67
2021/01/09 00:54:36;;;;;;;2.63;2.47;;;2.10;98.00;;;;;;5071480;28;20452;-67
2021/01/09 00:57:02;;;;;;;1.10;1.00;;;2.00;98.00;;;;;;5069254;28;20474;-67
2021/01/09 00:59:29;;;;;;;1.10;0.90;;;2.00;98.00;;;;;;5071298;28;20467;-68
2021/01/09 01:01:56;;;;;;;1.20;1.10;;;2.00;98.00;;;;;;5068847;28;20531;-68
2021/01/09 01:04:24;;;;;;;1.13;1.10;;;2.00;98.00;;;;;;5071328;28;21046;-68
2021/01/09 01:06:51;;;;;;;1.10;1.00;;;2.00;98.00;;;;;;5069073;28;20520;-67
2021/01/09 01:09:17;;;;;;;1.63;1.53;;;2.00;98.00;;;;;;5071288;28;20472;-68
2021/01/09 01:11:44;;;;;;;1.63;1.47;;;1.90;98.00;;;;;;5068909;28;20448;-68
2021/01/09 01:14:10;;;;;;;1.20;1.00;;;2.00;98.00;;;;;;5071256;28;20464;-68
2021/01/09 01:16:37;;;;;;;10.73;1.37;;;1.90;98.00;;;;;;5073197;28;20499;-68
2021/01/09 01:19:04;;;;;;;1.20;1.20;;;1.90;98.00;;;;;;5074048;28;20463;-66
2021/01/09 01:21:34;;;;;;;1.10;1.00;;;2.00;98.00;;;;;;5073233;28;20459;-67
2021/01/09 01:24:00;;;;;;;1.47;1.30;;;2.10;98.00;;;;;;5075199;28;20487;-67
2021/01/09 01:26:28;;;;;;;1.87;1.77;;;2.20;98.00;;;;;;5074825;28;20461;-67
2021/01/09 01:28:55;;;;;;;1.17;1.10;;;2.20;98.00;;;;;;5074223;28;20526;-67
2021/01/09 01:31:23;;;;;;;4.53;2.80;;;2.40;98.00;;;;;;5075088;28;20461;-69
2021/01/09 01:33:50;;;;;;;1.60;1.50;;;2.50;98.00;;;;;;5072302;28;20467;-67
2021/01/09 01:36:17;;;;;;;1.10;1.00;;;2.50;98.00;;;;;;5074856;28;20483;-68
2021/01/09 01:38:44;;;;;;;1.80;1.70;;;2.60;98.00;;;;;;5072707;28;20455;-66
2021/01/09 01:41:11;;;;;;;5.13;1.50;;;2.70;98.00;;;;;;5074936;28;20460;-67
2021/01/09 01:43:38;;;;;;;1.20;1.13;;;2.70;98.00;;;;;;5072728;28;20480;-68
2021/01/09 01:46:06;;;;;;;1.30;1.30;;;2.70;98.00;;;;;;5074736;28;20495;-67
2021/01/09 01:48:34;;;;;;;1.37;1.30;;;2.50;98.00;;;;;;5072764;28;20467;-67
2021/01/09 01:51:00;;;;;;;1.17;1.00;;;2.30;98.00;;;;;;5074983;28;20538;-67
2021/01/09 01:53:28;;;;;;;4.30;1.97;;;2.30;98.00;;;;;;5072600;28;20455;-67
2021/01/09 01:55:56;;;;;;;1.10;1.00;;;2.20;98.00;;;;;;5074791;28;20945;-69
2021/01/09 01:58:22;;;;;;;1.77;1.77;;;2.20;98.00;;;;;;5072520;28;20487;-68
2021/01/09 02:00:49;;;;;;;1.47;1.40;;;2.20;98.00;;;;;;5074547;28;20448;-69
2021/01/09 02:03:18;;;;;;;1.80;1.70;;;2.20;98.00;;;;;;5072365;28;20459;-67
2021/01/09 02:05:54;;;;;;;2.03;1.33;;;2.10;98.00;;;;;;5074504;28;20453;-67
2021/01/09 02:08:23;;;;;;;2.30;1.40;;;2.10;98.00;;;;;;5072258;28;20464;-68
2021/01/09 02:10:54;;;;;;;1.67;1.60;;;2.10;98.00;;;;;;5074386;28;20455;-68
2021/01/09 02:13:31;;;;;;;1.10;0.90;;;2.10;98.00;;;;;;5072159;28;20488;-68
2021/01/09 02:15:58;;;;;;;1.77;1.53;;;2.10;98.00;;;;;;5074264;28;20470;-67
2021/01/09 02:18:26;;;;;;;1.10;1.00;;;2.20;98.00;;;;;;5071866;28;20464;-69
2021/01/09 02:21:04;;;;;;;1.40;1.40;;;2.20;98.00;;;;;;5074025;28;20966;-68
2021/01/09 02:23:32;;;;;;;2.03;1.43;;;2.10;98.00;;;;;;5071702;28;20524;-69
2021/01/09 02:25:59;;;;;;;1.83;1.53;;;2.20;98.00;;;;;;5073664;28;20452;-68
2021/01/09 02:28:26;;;;;;;1.20;1.00;;;2.20;98.00;;;;;;5071184;28;20865;-67
2021/01/09 02:30:52;;;;;;;1.20;1.00;;;2.20;98.00;;;;;;5073811;28;20457;-67
2021/01/09 02:33:22;;;;;;;1.60;1.43;;;2.20;98.00;;;;;;5071611;28;20464;-67
2021/01/09 02:35:51;;;;;;;1.20;1.00;;;2.20;98.00;;;;;;5073820;28;20474;-66
2021/01/09 02:38:18;;;;;;;1.30;1.30;;;2.00;98.00;;;;;;5071381;28;20493;-68
2021/01/09 02:40:46;;;;;;;1.43;1.33;;;1.90;98.00;;;;;;5072715;28;20464;-68
2021/01/09 02:43:12;;;;;;;1.20;1.10;;;1.80;98.00;;;;;;5071594;28;20463;-67
2021/01/09 02:45:39;;;;;;;1.20;1.17;;;1.90;98.00;;;;;;5073779;28;20488;-67
2021/01/09 02:48:07;;;;;;;1.53;1.50;;;1.90;98.00;;;;;;5071432;28;20453;-69
2021/01/09 02:50:33;;;;;;;1.10;0.90;;;1.80;98.00;;;;;;5073891;28;20989;-67
2021/01/09 02:53:00;;;;;;;1.87;1.63;;;1.80;98.00;;;;;;5071457;28;20495;-67
2021/01/09 02:55:27;;;;;;;3.20;1.77;;;1.70;98.00;;;;;;5073704;28;20529;-68
2021/01/09 02:57:54;;;;;;;1.10;1.10;;;1.70;98.00;;;;;;5071472;28;20467;-69
2021/01/09 03:00:21;;;;;;;1.50;1.30;;;1.80;98.00;;;;;;5073388;28;20476;-69
2021/01/09 03:02:47;;;;;;;1.70;1.60;;;1.80;98.00;;;;;;5071355;28;20574;-68
2021/01/09 03:05:14;;;;;;;2.80;1.43;;;1.70;98.00;;;;;;5073338;28;20488;-68
2021/01/09 03:07:42;;;;;;;1.17;1.10;;;1.70;98.00;;;;;;5071116;28;20460;-67
2021/01/09 03:10:08;;;;;;;1.30;1.27;;;1.60;98.00;;;;;;5072023;28;20638;-67
2021/01/09 03:12:35;;;;;;;1.10;1.00;;;1.50;98.00;;;;;;5070915;28;20985;-67
2021/01/09 03:15:03;;;;;;;1.10;1.00;;;1.50;98.00;;;;;;5073144;28;20818;-66
2021/01/09 03:17:30;;;;;;;1.20;1.17;;;1.60;98.00;;;;;;5070914;28;20479;-68
2021/01/09 03:19:56;;;;;;;2.37;1.90;;;1.70;98.00;;;;;;5072891;28;20464;-67
2021/01/09 03:22:23;;;;;;;1.83;1.70;;;1.70;98.00;;;;;;5070567;28;20464;-67
2021/01/09 03:24:49;;;;;;;1.50;1.20;;;1.70;98.00;;;;;;5072923;28;20999;-68
2021/01/09 03:27:16;;;;;;;1.20;1.10;;;1.70;98.00;;;;;;5070533;28;20524;-68
2021/01/09 03:29:42;;;;;;;1.77;1.20;;;1.70;98.00;;;;;;5072829;28;20525;-66
2021/01/09 03:32:09;;;;;;;1.10;1.00;;;1.60;98.00;;;;;;5070321;28;20464;-68
2021/01/09 03:34:36;;;;;;;1.60;1.50;;;1.50;98.00;;;;;;5072766;28;20863;-69
2021/01/09 03:37:02;;;;;;;1.77;1.57;;;1.50;98.00;;;;;;5070339;28;20467;-67
2021/01/09 03:39:29;;;;;;;1.13;1.10;;;1.50;98.00;;;;;;5071617;28;20471;-69
2021/01/09 03:41:55;;;;;;;1.87;1.53;;;1.50;98.00;;;;;;5070461;28;20456;-68
2021/01/09 03:44:22;;;;;;;1.93;1.83;;;1.60;98.00;;;;;;5072423;28;20894;-68
2021/01/09 03:46:48;;;;;;;2.13;2.00;;;1.70;98.00;;;;;;5070307;28;20460;-67
2021/01/09 03:49:16;;;;;;;1.50;1.23;;;1.70;98.00;;;;;;5072855;28;20487;-66
2021/01/09 03:51:42;;;;;;;1.10;1.00;;;1.80;98.00;;;;;;5072017;28;20456;-67
2021/01/09 03:54:09;;;;;;;1.30;1.20;;;1.90;98.00;;;;;;5072042;28;20469;-68
2021/01/09 03:56:37;;;;;;;1.20;1.20;;;1.90;98.00;;;;;;5072767;28;20472;-69
2021/01/09 03:59:03;;;;;;;3.87;1.47;;;1.90;98.00;;;;;;5069889;28;20529;-67
2021/01/09 04:01:31;;;;;;;1.70;1.50;;;2.00;98.00;;;;;;5072310;28;20554;-69
2021/01/09 04:03:57;;;;;;;1.10;1.00;;;2.10;98.00;;;;;;5069952;28;20484;-67
2021/01/09 04:06:33;;;;;;;1.30;1.30;;;1.90;98.00;;;;;;5071017;28;20537;-69
2021/01/09 04:08:59;;;;;;;1.90;1.73;;;1.90;98.00;;;;;;5069821;28;20459;-67
2021/01/09 04:11:29;;;;;;;2.17;1.67;;;2.00;98.00;;;;;;5072083;28;20455;-67
2021/01/09 04:13:55;;;;;;;1.10;1.10;;;1.90;98.00;;;;;;5069781;28;20980;-67
2021/01/09 04:16:25;;;;;;;1.30;1.30;;;2.00;98.00;;;;;;5072033;28;20491;-67
2021/01/09 04:18:51;;;;;;;1.10;1.00;;;2.00;98.00;;;;;;5069311;28;20456;-68
2021/01/09 04:21:18;;;;;;;1.40;1.30;;;2.00;98.00;;;;;;5071849;28;20819;-68
2021/01/09 04:23:46;;;;;;;1.30;1.20;;;2.10;98.00;;;;;;5068257;28;20453;-69
2021/01/09 04:26:14;;;;;;;1.30;1.10;;;2.00;98.00;;;;;;5071778;28;20452;-67
2021/01/09 04:28:40;;;;;;;1.70;1.53;;;2.00;98.00;;;;;;5069022;28;20456;-68
2021/01/09 04:31:07;;;;;;;1.10;1.00;;;2.10;98.00;;;;;;5071643;28;20455;-67
2021/01/09 04:33:34;;;;;;;1.77;1.70;;;2.10;98.00;;;;;;5069196;28;20464;-68
2021/01/09 04:36:01;;;;;;;1.27;1.20;;;2.10;98.00;;;;;;5071627;28;20464;-67
2021/01/09 04:38:27;;;;;;;1.50;1.33;;;2.10;98.00;;;;;;5069349;28;20514;-67
2021/01/09 04:40:57;;;;;;;1.63;1.57;;;2.20;98.00;;;;;;5071554;28;20830;-68
2021/01/09 04:43:24;;;;;;;1.33;1.20;;;2.20;98.00;;;;;;5069696;28;20945;-68
2021/01/09 04:45:51;;;;;;;1.20;1.10;;;2.10;98.00;;;;;;5071524;28;20857;-68
2021/01/09 04:48:20;;;;;;;1.20;1.10;;;2.20;98.00;;;;;;5069492;28;20456;-67
2021/01/09 04:50:50;;;;;;;1.10;1.00;;;2.20;98.00;;;;;;5071301;28;20471;-67
2021/01/09 04:53:18;;;;;;;1.73;1.43;;;2.10;98.00;;;;;;5069244;28;20552;-69
2021/01/09 04:55:46;;;;;;;2.43;1.73;;;2.00;98.00;;;;;;5071617;28;20490;-69
2021/01/09 04:58:13;;;;;;;2.80;1.30;;;1.80;98.00;;;;;;5069095;28;20466;-68
2021/01/09 05:00:41;;;;;;;1.10;1.00;;;1.70;98.00;;;;;;5071403;28;20581;-66
2021/01/09 05:03:07;;;;;;;1.90;1.40;;;1.70;98.00;;;;;;5069243;28;20506;-69
2021/01/09 05:05:34;;;;;;;1.10;1.00;;;1.80;98.00;;;;;;5071296;28;20494;-69
2021/01/09 05:08:01;;;;;;;1.40;1.27;;;1.80;98.00;;;;;;5069343;28;20850;-67
2021/01/09 05:10:34;;;;;;;4.50;1.73;;;1.90;98.00;;;;;;5071262;28;20459;-68
2021/01/09 05:13:00;;;;;;;1.83;1.73;;;2.00;98.00;;;;;;5069164;28;20461;-66
2021/01/09 05:15:35;;;;;;;1.10;1.00;;;2.10;98.00;;;;;;5071294;28;20481;-67
2021/01/09 05:18:01;;;;;;;2.00;1.50;;;1.90;98.00;;;;;;5068619;28;20451;-67
2021/01/09 05:20:28;;;;;;;1.30;1.10;;;1.90;98.00;;;;;;5071039;28;20456;-68
2021/01/09 05:22:55;;;;;;;1.50;1.40;;;1.90;98.00;;;;;;5068678;28;20460;-68
2021/01/09 05:25:24;;;;;;;5.57;2.10;;;1.90;98.00;;;;;;5070390;28;20484;-67
2021/01/09 05:27:52;;;;;;;1.50;1.40;;;2.00;98.00;;;;;;5068032;28;20524;-69
2021/01/09 05:30:20;;;;;;;2.13;1.40;;;2.00;98.00;;;;;;5070312;28;20455;-67
2021/01/09 05:32:47;;;;;;;1.40;1.23;;;2.00;98.00;;;;;;5068451;28;20470;-67
2021/01/09 05:35:15;;;;;;;1.10;1.00;;;2.10;98.00;;;;;;5070882;28;20456;-67
2021/01/09 05:37:41;;;;;;;1.10;0.90;;;2.10;98.00;;;;;;5068683;28;20465;-69
2021/01/09 05:40:09;;;;;;;1.10;1.00;;;2.10;98.00;;;;;;5071296;28;20463;-68
2021/01/09 05:42:36;;;;;;;2.70;1.47;;;2.10;98.00;;;;;;5068769;28;20467;-68
2021/01/09 05:45:03;;;;;;;1.10;0.90;;;2.10;98.00;;;;;;5071160;28;20541;-67
2021/01/09 05:47:31;;;;;;;1.60;1.50;;;2.20;98.00;;;;;;5068667;28;20459;-67
2021/01/09 05:50:00;;;;;;;1.10;1.00;;;2.20;98.00;;;;;;5070957;28;20461;-68
2021/01/09 05:52:28;;;;;;;2.43;2.23;;;2.20;98.00;;;;;;5069098;28;20453;-67
2021/01/09 05:54:55;;;;;;;1.73;1.37;;;2.20;98.00;;;;;;5070886;28;20455;-68
2021/01/09 05:57:27;;;;;;;1.10;1.00;;;2.20;98.00;;;;;;5068727;28;20470;-68
2021/01/09 05:59:57;;;;;;;1.53;1.43;;;2.20;98.00;;;;;;5070617;28;20466;-68
2021/01/09 06:02:25;;;;;;;1.30;1.20;;;2.30;98.00;;;;;;5070074;28;20463;-67
2021/01/09 06:04:56;;;;;;;2.80;2.60;;;2.30;98.00;;;;;;5074338;28;20523;-67
2021/01/09 06:07:26;;;;;;;1.30;1.27;;;2.20;98.00;;;;;;5072162;28;20927;-67
2021/01/09 06:09:58;;;;;;;1.10;1.00;;;2.10;98.00;;;;;;5074296;28;20967;-67
2021/01/09 06:12:27;;;;;;;1.43;1.40;;;2.00;98.00;;;;;;5071515;28;20947;-68
2021/01/09 06:14:55;;;;;;;1.10;1.00;;;2.00;98.00;;;;;;5074225;28;20455;-68
2021/01/09 06:17:22;;;;;;;2.47;1.53;;;2.00;98.00;;;;;;5072297;28;20542;-68
2021/01/09 06:19:49;;;;;;;1.73;1.30;;;2.00;98.00;;;;;;5073972;28;20460;-67
2021/01/09 06:22:16;;;;;;;1.80;1.73;;;2.10;98.00;;;;;;5072173;28;20460;-68
2021/01/09 06:24:44;;;;;;;3.30;2.60;;;2.10;98.00;;;;;;5073933;28;20480;-68
2021/01/09 06:27:18;;;;;;;1.37;1.10;;;2.10;98.00;;;;;;5071686;28;20455;-67
2021/01/09 06:29:49;;;;;;;1.40;1.30;;;2.10;98.00;;;;;;5073891;28;20474;-67
2021/01/09 06:32:19;;;;;;;1.10;1.10;;;2.00;98.00;;;;;;5071637;28;20448;-67
2021/01/09 06:34:49;;;;;;;2.23;2.00;;;1.80;98.00;;;;;;5073669;28;20453;-67
2021/01/09 06:37:22;;;;;;;2.00;1.43;;;1.70;98.00;;;;;;5071550;28;20494;-68
2021/01/09 06:39:50;;;;;;;1.77;1.70;;;1.60;98.00;;;;;;5073760;28;20455;-68
2021/01/09 06:42:19;;;;;;;1.10;1.00;;;1.50;98.00;;;;;;5071560;28;20455;-68
2021/01/09 06:44:50;;;;;;;1.27;1.17;;;1.50;98.00;;;;;;5073581;28;20483;-67
2021/01/09 06:47:25;;;;;;;1.20;1.20;;;1.50;98.00;;;;;;5071913;28;20463;-68
2021/01/09 06:49:53;;;;;;;1.10;1.10;;;1.60;98.00;;;;;;5073868;28;20938;-67
2021/01/09 06:52:19;;;;;;;1.27;1.17;;;1.70;98.00;;;;;;5071374;28;20463;-69
2021/01/09 06:54:47;;;;;;;1.20;1.10;;;1.70;98.00;;;;;;5073825;28;20488;-67
2021/01/09 06:57:19;;;;;;;2.23;1.73;;;1.80;98.00;;;;;;5071736;28;20455;-68
2021/01/09 06:59:48;;;;;;;1.10;1.00;;;1.80;98.00;;;;;;5073310;28;20550;-67
2021/01/09 07:02:20;;;;;;;1.10;1.07;;;1.60;98.00;;;;;;5070863;28;20467;-69
2021/01/09 07:05:01;;;;;;;1.10;1.00;;;1.40;98.00;;;;;;5073431;28;20487;-68
2021/01/09 07:07:29;;;;;;;1.10;1.10;;;1.30;98.00;;;;;;5070884;28;20471;-68
2021/01/09 07:10:02;;;;;;;1.43;1.30;;;1.30;98.00;;;;;;5073217;28;20464;-68
2021/01/09 07:12:30;;;;;;;1.10;1.00;;;1.40;98.00;;;;;;5070649;28;20953;-69
2021/01/09 07:15:04;;;;;;;1.20;1.20;;;1.40;98.00;;;;;;5073160;28;20463;-69
2021/01/09 07:17:34;;;;;;;1.50;1.40;;;1.40;98.00;;;;;;5070974;28;20909;-70
2021/01/09 07:20:04;;;;;;;1.30;1.30;;;1.50;98.00;;;;;;5073131;28;20464;-67
2021/01/09 07:22:32;;;;;;;1.63;1.40;;;1.70;98.00;;;;;;5070679;28;21083;-68
2021/01/09 07:25:00;;;;;;;1.20;1.20;;;1.70;98.00;;;;;;5072858;28;20488;-67
2021/01/09 07:27:36;;;;;;;1.10;1.10;;;1.80;98.00;;;;;;5070517;28;20563;-67
2021/01/09 07:30:13;;;;;;;1.27;1.23;;;1.80;98.00;;;;;;5072745;28;20877;-67
2021/01/09 07:32:48;;;;;;;1.93;1.50;;;1.80;98.00;;;;;;5070364;28;20468;-69
2021/01/09 07:35:30;;;;;;;1.83;1.80;;;1.70;98.00;;;;;;5072618;28;20867;-67
2021/01/09 07:37:59;;;;;;;1.93;1.50;;;1.70;98.00;;;;;;5070033;28;20456;-69
2021/01/09 07:40:31;;;;;;;1.70;1.40;;;1.70;98.00;;;;;;5072574;28;20509;-69
2021/01/09 07:42:58;;;;;;;1.10;1.00;;;1.70;98.00;;;;;;5070518;28;20460;-68
2021/01/09 07:45:31;;;;;;;1.10;0.97;;;1.70;98.00;;;;;;5072575;28;20487;-67
2021/01/09 07:47:58;;;;;;;1.30;1.20;;;1.70;98.00;;;;;;5070185;28;20787;-69
2021/01/09 07:50:25;;;;;;;2.33;2.10;;;1.70;98.00;;;;;;5072630;28;20466;-69
2021/01/09 07:53:05;;;;;;;1.30;1.23;;;1.70;98.00;;;;;;5070474;28;20464;-68
2021/01/09 07:55:44;;;;;;;2.30;1.50;;;1.60;98.00;;;;;;5072488;28;20470;-68
2021/01/09 07:58:12;;;;;;;1.10;1.10;;;1.70;98.00;;;;;;5070105;28;20954;-68
2021/01/09 08:00:42;;;;;;;1.10;1.00;;;1.80;98.00;;;;;;5070887;28;20464;-68
2021/01/09 08:03:10;;;;;;;1.97;1.53;;;1.80;98.00;;;;;;5069912;28;20471;-68
2021/01/09 08:05:37;;;;;;;1.47;1.37;;;1.90;98.00;;;;;;5072125;28;20494;-68
2021/01/09 08:08:05;;;;;;;1.73;1.27;;;1.90;98.00;;;;;;5069852;28;20992;-70
2021/01/09 08:10:32;;;;;;;1.83;1.20;;;2.00;98.00;;;;;;5072202;28;20915;-67
2021/01/09 08:13:00;;;;;;;2.43;1.63;;;2.00;98.00;;;;;;5069791;28;20821;-68
2021/01/09 08:15:29;;;;;;;1.30;1.27;;;2.10;98.00;;;;;;5071915;28;20947;-68
2021/01/09 08:18:00;;;;;;;1.30;1.20;;;2.20;98.00;;;;;;5069831;28;20459;-68
2021/01/09 08:20:26;;;;;;;1.43;1.33;;;2.30;98.00;;;;;;5071722;28;20464;-68
2021/01/09 08:22:55;;;;;;;1.17;1.10;;;2.30;98.00;;;;;;5069695;28;20461;-67
2021/01/09 08:25:23;;;;;;;2.80;1.53;;;2.30;98.00;;;;;;5071028;28;20516;-67
2021/01/09 08:27:51;;;;;;;1.10;1.00;;;2.40;98.00;;;;;;5069317;28;20467;-68
2021/01/09 08:30:20;;;;;;;1.37;1.33;;;2.50;98.00;;;;;;5071571;28;20464;-67
2021/01/09 08:32:48;;;;;;;3.37;1.30;;;2.50;98.00;;;;;;5069252;28;20471;-68
2021/01/09 08:35:15;;;;;;;1.77;1.30;;;2.60;98.00;;;;;;5071562;28;20867;-68
2021/01/09 08:37:43;;;;;;;2.93;1.60;;;2.60;98.00;;;;;;5068373;28;20464;-68
2021/01/09 08:40:15;;;;;;;1.27;1.23;;;2.60;98.00;;;;;;5071680;28;20464;-68
2021/01/09 08:42:59;;;;;;;2.40;1.10;;;2.70;98.00;;;;;;5069574;28;20456;-68
2021/01/09 08:45:46;;;;;;;3.20;1.57;;;2.80;98.00;;;;;;5071643;28;20484;-69
2021/01/09 08:48:16;;;;;;;1.10;1.00;;;2.80;98.00;;;;;;5069494;28;20471;-68
2021/01/09 08:51:05;;;;;;;1.10;1.00;;;2.90;98.00;;;;;;5070770;28;20456;-67
2021/01/09 08:53:45;;;;;;;1.10;1.00;;;2.90;98.00;;;;;;5068680;28;20878;-68
2021/01/09 08:56:14;;;;;;;2.63;1.53;;;3.10;98.00;;;;;;5070867;28;20475;-68
2021/01/09 08:58:41;;;;;;;1.30;1.20;;;3.00;98.00;;;;;;5068520;28;20522;-68
2021/01/09 09:01:11;;;;;;;1.63;1.30;;;2.80;98.00;;;;;;5070752;28;20445;-67
2021/01/09 09:03:43;;;;;;;1.50;1.40;;;2.50;98.00;;;;;;5068535;28;20457;-67
2021/01/09 09:06:13;;;;;;;2.23;1.63;;;2.50;98.00;;;;;;5070732;28;20484;-67
2021/01/09 09:08:40;;;;;;;1.87;1.67;;;2.60;98.00;;;;;;5068841;28;20463;-68
2021/01/09 09:11:07;;;;;;;1.33;1.30;;;2.40;98.00;;;;;;5070976;28;20495;-67
2021/01/09 09:13:34;;;;;;;1.20;1.10;;;2.30;98.00;;;;;;5068426;28;20946;-69
2021/01/09 09:16:16;;;;;;;1.20;1.20;;;2.20;98.00;;;;;;5070616;28;20459;-68
2021/01/09 09:18:43;;;;;;;3.00;2.23;;;2.20;98.00;;;;;;5068187;28;20502;-68
2021/01/09 09:21:10;;;;;;;3.67;2.27;;;2.20;98.00;;;;;;5070670;28;20463;-69
2021/01/09 09:23:37;;;;;;;1.10;1.00;;;2.40;98.00;;;;;;5068601;28;20487;-70
2021/01/09 09:26:07;;;;;;;1.67;1.57;;;2.30;98.00;;;;;;5068972;28;20491;-67
2021/01/09 09:28:45;;;;;;;1.40;1.30;;;2.40;98.00;;;;;;5067879;28;20464;-68
2021/01/09 09:31:22;;;;;;;1.20;1.10;;;2.40;98.00;;;;;;5070526;28;20466;-68
2021/01/09 09:34:14;;;;;;;3.70;1.60;;;2.50;98.00;;;;;;5068585;28;20805;-69
2021/01/09 09:36:41;;;;;;;2.20;1.77;;;2.70;98.00;;;;;;5072634;28;20463;-68
2021/01/09 09:39:15;;;;;;;1.60;1.50;;;2.70;98.00;;;;;;5072334;28;20460;-69
2021/01/09 09:41:54;;;;;;;1.20;1.20;;;2.60;98.00;;;;;;5074792;28;20455;-67
2021/01/09 09:44:22;;;;;;;1.10;0.97;;;2.70;98.00;;;;;;5072195;28;20522;-69
2021/01/09 09:46:52;;;;;;;3.30;2.43;;;2.80;98.00;;;;;;5075068;28;20461;-68
2021/01/09 09:49:20;;;;;;;2.90;1.97;;;2.90;98.00;;;;;;5072502;28;20455;-68
2021/01/09 09:51:46;;;;;;;1.20;1.10;;;2.80;98.00;;;;;;5074955;28;20457;-68
2021/01/09 09:54:13;;;;;;;1.80;1.77;;;2.80;98.00;;;;;;5070910;28;20991;-69
2021/01/09 09:56:41;;;;;;;1.73;1.30;;;2.90;98.00;;;;;;5074600;28;20458;-67
2021/01/09 09:59:09;;;;;;;1.50;1.50;;;3.10;98.00;;;;;;5072486;28;20541;-69
2021/01/09 10:01:36;;;;;;;1.40;1.30;;;3.00;98.00;;;;;;5074454;28;20465;-67
2021/01/09 10:04:06;;;;;;;1.50;1.30;;;3.30;98.00;;;;;;5072040;28;20969;-67
2021/01/09 10:06:37;;;;;;;3.90;1.53;;;3.20;98.00;;;;;;5074572;28;20867;-67
2021/01/09 10:09:14;;;;;;;4.50;1.93;;;3.20;98.00;;;;;;5072282;28;20457;-67
2021/01/09 10:11:42;;;;;;;1.20;1.20;;;3.30;98.00;;;;;;5074473;28;20457;-67
2021/01/09 10:14:08;;;;;;;1.20;1.00;;;3.50;98.00;;;;;;5071965;28;20459;-67
2021/01/09 10:16:35;;;;;;;2.03;1.47;;;3.50;98.00;;;;;;5074336;28;20467;-68
2021/01/09 10:19:03;;;;;;;1.20;1.00;;;3.40;98.00;;;;;;5072116;28;20460;-69
2021/01/09 10:21:30;;;;;;;1.40;1.27;;;3.50;98.00;;;;;;5074069;28;20456;-68
2021/01/09 10:23:58;;;;;;;1.20;1.00;;;3.50;98.00;;;;;;5071939;28;20495;-68
2021/01/09 10:26:26;;;;;;;1.43;1.37;;;3.50;98.00;;;;;;5074132;28;20518;-67
2021/01/09 10:28:52;;;;;;;2.57;1.83;;;3.30;98.00;;;;;;5071970;28;20826;-67
2021/01/09 10:31:19;;;;;;;1.60;1.50;;;3.40;98.00;;;;;;5074232;28;20966;-67
2021/01/09 10:33:45;;;;;;;1.13;1.00;;;3.50;98.00;;;;;;5071774;28;20810;-67
2021/01/09 10:36:12;;;;;;;1.50;1.40;;;3.50;98.00;;;;;;5074279;28;21020;-68
2021/01/09 10:38:38;;;;;;;1.50;1.43;;;3.50;98.00;;;;;;5071820;28;20475;-67
2021/01/09 10:41:12;;;;;;;1.30;1.10;;;3.30;98.00;;;;;;5073915;28;20483;-67
2021/01/09 10:43:38;;;;;;;3.93;2.50;;;3.20;98.00;;;;;;5071378;28;20484;-66
2021/01/09 10:46:05;;;;;;;1.30;1.30;;;3.00;98.00;;;;;;5073744;28;20487;-68
2021/01/09 10:48:31;;;;;;;1.20;1.10;;;2.80;98.00;;;;;;5069694;28;20456;-68
2021/01/09 10:50:58;;;;;;;1.20;1.13;;;2.80;98.00;;;;;;5073700;28;20859;-68
2021/01/09 10:53:25;;;;;;;1.20;1.10;;;2.70;98.00;;;;;;5071444;28;20977;-66
2021/01/09 10:55:55;;;;;;;1.47;1.37;;;2.80;98.00;;;;;;5073553;28;20479;-67
2021/01/09 10:58:22;;;;;;;1.27;1.23;;;2.90;98.00;;;;;;5071221;28;20457;-67
2021/01/09 11:00:49;;;;;;;1.40;1.20;;;3.00;98.00;;;;;;5073394;28;20881;-68
2021/01/09 11:03:16;;;;;;;1.63;1.43;;;3.00;98.00;;;;;;5071071;28;20459;-68
2021/01/09 11:05:44;;;;;;;1.80;1.60;;;2.80;98.00;;;;;;5073322;28;20491;-68
2021/01/09 11:08:11;;;;;;;1.10;0.90;;;2.80;98.00;;;;;;5069479;28;20954;-68
2021/01/09 11:10:37;;;;;;;1.40;1.30;;;2.60;98.00;;;;;;5071451;28;20468;-67
2021/01/09 11:13:04;;;;;;;1.27;1.10;;;2.60;98.00;;;;;;5068654;28;20478;-67
2021/01/09 11:15:31;;;;;;;1.80;1.50;;;2.40;98.00;;;;;;5071959;28;20492;-69
2021/01/09 11:17:58;;;;;;;1.20;1.00;;;2.60;98.00;;;;;;5070236;28;20968;-67
2021/01/09 11:20:24;;;;;;;1.20;1.10;;;2.70;98.00;;;;;;5073096;28;20463;-67
2021/01/09 11:22:53;;;;;;;1.10;0.90;;;2.80;98.00;;;;;;5070981;28;20468;-68
2021/01/09 11:25:19;;;;;;;1.40;1.10;;;2.90;98.00;;;;;;5073022;28;20483;-67
2021/01/09 11:27:51;;;;;;;1.10;1.00;;;2.80;98.00;;;;;;5071284;28;20573;-67
2021/01/09 11:30:18;;;;;;;1.17;1.00;;;2.70;98.00;;;;;;5073284;28;20811;-68
2021/01/09 11:32:46;;;;;;;1.10;1.00;;;2.70;98.00;;;;;;5070459;28;20512;-68
2021/01/09 11:35:12;;;;;;;1.43;1.43;;;2.90;98.00;;;;;;5072881;28;20878;-68
2021/01/09 11:37:44;;;;;;;1.10;1.00;;;2.90;98.00;;;;;;5070723;28;20585;-67
2021/01/09 11:40:11;;;;;;;1.20;1.10;;;2.70;98.00;;;;;;5072530;28;20460;-67
2021/01/09 11:42:42;;;;;;;1.20;1.00;;;2.70;98.00;;;;;;5071231;28;20460;-67
2021/01/09 11:45:10;;;;;;;1.40;1.20;;;2.70;98.00;;;;;;5072814;28;20492;-66
2021/01/09 11:47:37;;;;;;;3.40;1.60;;;2.60;98.00;;;;;;5070641;28;20460;-67
2021/01/09 11:50:06;;;;;;;1.10;1.00;;;2.60;98.00;;;;;;5072777;28;20518;-68
2021/01/09 11:52:33;;;;;;;1.17;0.93;;;2.60;98.00;;;;;;5071311;28;20550;-67
2021/01/09 11:55:00;;;;;;;1.30;1.10;;;2.50;98.00;;;;;;5072509;28;20459;-68
2021/01/09 11:57:26;;;;;;;1.13;0.90;;;2.60;98.00;;;;;;5072342;28;20459;-67
2021/01/09 11:59:53;;;;;;;1.57;1.53;;;2.50;98.00;;;;;;5068483;28;20518;-67
2021/01/09 12:02:19;;;;;;;1.20;1.00;;;2.60;98.00;;;;;;5072263;28;20464;-67
2021/01/09 12:04:46;;;;;;;1.10;1.00;;;2.60;98.00;;;;;;5069565;28;20488;-66
2021/01/09 12:07:13;;;;;;;1.47;1.20;;;2.50;98.00;;;;;;5071827;28;20548;-67
2021/01/09 12:09:40;;;;;;;1.30;1.10;;;2.40;98.00;;;;;;5069567;28;21043;-67
2021/01/09 12:12:07;;;;;;;1.10;0.93;;;2.60;98.00;;;;;;5072033;28;20967;-66
2021/01/09 12:14:33;;;;;;;1.10;1.00;;;2.50;98.00;;;;;;5069759;28;20459;-67
2021/01/09 12:17:00;;;;;;;1.20;1.10;;;2.70;98.00;;;;;;5070810;28;20471;-68
2021/01/09 12:19:27;;;;;;;1.50;1.33;;;2.70;98.00;;;;;;5069516;28;20459;-67
2021/01/09 12:21:54;;;;;;;2.03;1.73;;;3.00;98.00;;;;;;5071850;28;20504;-68
2021/01/09 12:24:22;;;;;;;1.40;1.37;;;3.00;98.00;;;;;;5068181;28;20540;-66
2021/01/09 12:26:52;;;;;;;1.40;1.40;;;3.20;98.00;;;;;;5071667;28;20521;-67
2021/01/09 12:29:19;;;;;;;1.20;1.17;;;3.20;98.00;;;;;;5069183;28;20456;-67
2021/01/09 12:31:46;;;;;;;1.93;1.77;;;3.30;98.00;;;;;;5071517;28;20464;-68
2021/01/09 12:34:13;;;;;;;1.20;0.90;;;3.20;98.00;;;;;;5069414;28;20467;-67
2021/01/09 12:36:40;;;;;;;2.77;1.53;;;3.30;98.00;;;;;;5071689;28;20456;-67
2021/01/09 12:39:07;;;;;;;1.60;1.50;;;3.30;98.00;;;;;;5069377;28;20453;-67
2021/01/09 12:41:36;;;;;;;1.40;1.10;;;3.40;98.00;;;;;;5071795;28;20868;-66
2021/01/09 12:44:04;;;;;;;1.27;1.10;;;3.50;98.00;;;;;;5069606;28;20455;-67
2021/01/09 12:46:35;;;;;;;1.30;1.20;;;3.50;98.00;;;;;;5071912;28;20497;-68
2021/01/09 12:49:02;;;;;;;1.10;1.00;;;3.30;98.00;;;;;;5069758;28;20470;-67
2021/01/09 12:51:28;;;;;;;1.20;1.00;;;3.40;98.00;;;;;;5071903;28;20483;-67
2021/01/09 12:53:55;;;;;;;1.10;0.90;;;3.30;98.00;;;;;;5069462;28;20532;-66
2021/01/09 12:56:21;;;;;;;1.50;1.30;;;3.30;98.00;;;;;;5071606;28;20460;-67
2021/01/09 12:58:50;;;;;;;1.20;1.10;;;3.20;98.00;;;;;;5069184;28;20464;-68
2021/01/09 13:01:16;;;;;;;1.80;1.53;;;3.00;98.00;;;;;;5070291;28;20517;-66
2021/01/09 13:03:46;;;;;;;1.20;1.10;;;3.00;98.00;;;;;;5069021;28;20460;-66